sensor_id;sensor_type;location;lat;lon;timestamp;P1;durP1;ratioP1;P2;durP2;ratioP2
17763;SDS011;22245;52.832;13.816;2023-06-22T00:02:23;16.95;;;13.68;;
17763;SDS011;22245;52.832;13.816;2023-06-22T00:05:45;16.50;;;13.63;;
17763;SDS011;22245;52.832;13.816;2023-06-22T00:09:08;15.60;;;13.98;;
17763;SDS011;22245;52.832;13.816;2023-06-22T00:12:30;17.95;;;14.13;;
17763;SDS011;22245;52.832;13.816;2023-06-22T00:15:52;18.52;;;13.75;;
17763;SDS011;22245;52.832;13.816;2023-06-22T00:19:14;16.25;;;13.02;;
17763;SDS011;22245;52.832;13.816;2023-06-22T00:22:36;17.20;;;13.95;;
17763;SDS011;22245;52.832;13.816;2023-06-22T00:26:00;16.92;;;13.35;;
17763;SDS011;22245;52.832;13.816;2023-06-22T00:29:22;15.07;;;12.73;;
17763;SDS011;22245;52.832;13.816;2023-06-22T00:32:45;17.95;;;12.25;;
17763;SDS011;22245;52.832;13.816;2023-06-22T00:36:07;16.00;;;13.10;;
17763;SDS011;22245;52.832;13.816;2023-06-22T00:39:30;14.32;;;12.27;;
17763;SDS011;22245;52.832;13.816;2023-06-22T00:42:55;15.98;;;12.85;;
17763;SDS011;22245;52.832;13.816;2023-06-22T00:46:17;14.57;;;12.82;;
17763;SDS011;22245;52.832;13.816;2023-06-22T00:49:39;16.05;;;13.07;;
17763;SDS011;22245;52.832;13.816;2023-06-22T00:53:03;15.40;;;12.70;;
17763;SDS011;22245;52.832;13.816;2023-06-22T00:56:29;15.95;;;12.77;;
17763;SDS011;22245;52.832;13.816;2023-06-22T00:59:52;17.02;;;13.32;;
17763;SDS011;22245;52.832;13.816;2023-06-22T01:03:13;16.77;;;13.93;;
17763;SDS011;22245;52.832;13.816;2023-06-22T01:06:38;15.55;;;12.10;;
17763;SDS011;22245;52.832;13.816;2023-06-22T01:10:06;16.40;;;13.27;;
17763;SDS011;22245;52.832;13.816;2023-06-22T01:13:35;14.15;;;12.25;;
17763;SDS011;22245;52.832;13.816;2023-06-22T01:17:04;22.33;;;15.15;;
17763;SDS011;22245;52.832;13.816;2023-06-22T01:20:29;16.27;;;12.85;;
17763;SDS011;22245;52.832;13.816;2023-06-22T01:24:03;16.33;;;12.85;;
17763;SDS011;22245;52.832;13.816;2023-06-22T01:27:39;14.60;;;12.20;;
17763;SDS011;22245;52.832;13.816;2023-06-22T01:31:09;15.30;;;12.20;;
17763;SDS011;22245;52.832;13.816;2023-06-22T01:34:34;15.23;;;11.73;;
17763;SDS011;22245;52.832;13.816;2023-06-22T01:37:58;15.98;;;11.88;;
17763;SDS011;22245;52.832;13.816;2023-06-22T01:41:20;13.20;;;11.55;;
17763;SDS011;22245;52.832;13.816;2023-06-22T01:44:43;14.27;;;11.88;;
17763;SDS011;22245;52.832;13.816;2023-06-22T01:48:06;15.10;;;12.18;;
17763;SDS011;22245;52.832;13.816;2023-06-22T01:51:28;14.90;;;11.48;;
17763;SDS011;22245;52.832;13.816;2023-06-22T01:54:52;13.90;;;12.40;;
17763;SDS011;22245;52.832;13.816;2023-06-22T01:58:14;15.27;;;12.50;;
17763;SDS011;22245;52.832;13.816;2023-06-22T02:01:38;14.15;;;11.70;;
17763;SDS011;22245;52.832;13.816;2023-06-22T02:05:06;16.02;;;12.32;;
17763;SDS011;22245;52.832;13.816;2023-06-22T02:08:34;15.93;;;12.32;;
17763;SDS011;22245;52.832;13.816;2023-06-22T02:12:02;18.73;;;12.90;;
17763;SDS011;22245;52.832;13.816;2023-06-22T02:15:26;14.95;;;11.63;;
17763;SDS011;22245;52.832;13.816;2023-06-22T02:18:49;16.38;;;11.65;;
17763;SDS011;22245;52.832;13.816;2023-06-22T02:22:13;13.48;;;11.85;;
17763;SDS011;22245;52.832;13.816;2023-06-22T02:25:36;13.73;;;11.85;;
17763;SDS011;22245;52.832;13.816;2023-06-22T02:28:58;14.55;;;11.25;;
17763;SDS011;22245;52.832;13.816;2023-06-22T02:32:20;13.98;;;11.38;;
17763;SDS011;22245;52.832;13.816;2023-06-22T02:35:42;17.52;;;12.05;;
17763;SDS011;22245;52.832;13.816;2023-06-22T02:39:09;16.48;;;11.27;;
17763;SDS011;22245;52.832;13.816;2023-06-22T02:42:31;14.23;;;11.85;;
17763;SDS011;22245;52.832;13.816;2023-06-22T02:45:53;15.93;;;11.45;;
17763;SDS011;22245;52.832;13.816;2023-06-22T02:49:15;15.65;;;11.00;;
17763;SDS011;22245;52.832;13.816;2023-06-22T02:52:37;15.48;;;11.10;;
17763;SDS011;22245;52.832;13.816;2023-06-22T02:56:01;16.08;;;11.10;;
17763;SDS011;22245;52.832;13.816;2023-06-22T02:59:29;15.38;;;11.68;;
17763;SDS011;22245;52.832;13.816;2023-06-22T03:02:59;16.40;;;11.82;;
17763;SDS011;22245;52.832;13.816;2023-06-22T03:06:21;14.25;;;11.70;;
17763;SDS011;22245;52.832;13.816;2023-06-22T03:09:48;13.20;;;11.63;;
17763;SDS011;22245;52.832;13.816;2023-06-22T03:13:12;14.02;;;12.25;;
17763;SDS011;22245;52.832;13.816;2023-06-22T03:16:34;13.80;;;11.70;;
17763;SDS011;22245;52.832;13.816;2023-06-22T03:19:56;14.52;;;11.63;;
17763;SDS011;22245;52.832;13.816;2023-06-22T03:23:18;13.45;;;11.18;;
17763;SDS011;22245;52.832;13.816;2023-06-22T03:26:40;14.65;;;12.07;;
17763;SDS011;22245;52.832;13.816;2023-06-22T03:30:03;13.75;;;11.45;;
17763;SDS011;22245;52.832;13.816;2023-06-22T03:33:26;15.77;;;12.20;;
17763;SDS011;22245;52.832;13.816;2023-06-22T03:36:51;14.43;;;11.77;;
17763;SDS011;22245;52.832;13.816;2023-06-22T03:40:13;15.55;;;12.00;;
17763;SDS011;22245;52.832;13.816;2023-06-22T03:43:34;15.80;;;12.38;;
17763;SDS011;22245;52.832;13.816;2023-06-22T03:46:58;16.92;;;12.52;;
17763;SDS011;22245;52.832;13.816;2023-06-22T03:50:19;16.77;;;13.60;;
17763;SDS011;22245;52.832;13.816;2023-06-22T03:53:41;16.98;;;14.00;;
17763;SDS011;22245;52.832;13.816;2023-06-22T03:57:04;17.00;;;13.15;;
17763;SDS011;22245;52.832;13.816;2023-06-22T04:00:29;19.55;;;14.02;;
17763;SDS011;22245;52.832;13.816;2023-06-22T04:03:52;19.55;;;14.68;;
17763;SDS011;22245;52.832;13.816;2023-06-22T04:07:14;19.20;;;15.18;;
17763;SDS011;22245;52.832;13.816;2023-06-22T04:10:35;20.00;;;14.57;;
17763;SDS011;22245;52.832;13.816;2023-06-22T04:13:57;18.40;;;14.20;;
17763;SDS011;22245;52.832;13.816;2023-06-22T04:17:19;19.17;;;14.55;;
17763;SDS011;22245;52.832;13.816;2023-06-22T04:20:42;18.80;;;14.05;;
17763;SDS011;22245;52.832;13.816;2023-06-22T04:24:07;20.10;;;15.05;;
17763;SDS011;22245;52.832;13.816;2023-06-22T04:27:28;16.00;;;14.05;;
17763;SDS011;22245;52.832;13.816;2023-06-22T04:30:50;18.45;;;14.27;;
17763;SDS011;22245;52.832;13.816;2023-06-22T04:34:12;17.00;;;14.45;;
17763;SDS011;22245;52.832;13.816;2023-06-22T04:37:37;19.48;;;14.70;;
17763;SDS011;22245;52.832;13.816;2023-06-22T04:40:59;16.80;;;14.27;;
17763;SDS011;22245;52.832;13.816;2023-06-22T04:44:23;18.83;;;14.82;;
17763;SDS011;22245;52.832;13.816;2023-06-22T04:47:45;17.55;;;14.85;;
17763;SDS011;22245;52.832;13.816;2023-06-22T04:51:07;17.88;;;15.65;;
17763;SDS011;22245;52.832;13.816;2023-06-22T04:54:30;27.45;;;14.80;;
17763;SDS011;22245;52.832;13.816;2023-06-22T04:57:53;18.23;;;15.63;;
17763;SDS011;22245;52.832;13.816;2023-06-22T05:01:14;19.45;;;15.30;;
17763;SDS011;22245;52.832;13.816;2023-06-22T05:04:36;17.85;;;14.88;;
17763;SDS011;22245;52.832;13.816;2023-06-22T05:08:00;20.45;;;15.23;;
17763;SDS011;22245;52.832;13.816;2023-06-22T05:11:24;19.88;;;14.45;;
17763;SDS011;22245;52.832;13.816;2023-06-22T05:14:46;16.23;;;14.00;;
17763;SDS011;22245;52.832;13.816;2023-06-22T05:18:08;18.75;;;14.23;;
17763;SDS011;22245;52.832;13.816;2023-06-22T05:21:32;17.52;;;14.43;;
17763;SDS011;22245;52.832;13.816;2023-06-22T05:24:53;17.45;;;13.43;;
17763;SDS011;22245;52.832;13.816;2023-06-22T05:28:17;17.40;;;11.52;;
17763;SDS011;22245;52.832;13.816;2023-06-22T05:31:43;11.82;;;10.25;;
17763;SDS011;22245;52.832;13.816;2023-06-22T05:35:05;15.60;;;10.98;;
17763;SDS011;22245;52.832;13.816;2023-06-22T05:38:26;14.13;;;9.23;;
17763;SDS011;22245;52.832;13.816;2023-06-22T05:41:48;9.70;;;7.35;;
17763;SDS011;22245;52.832;13.816;2023-06-22T05:45:11;10.00;;;6.88;;
17763;SDS011;22245;52.832;13.816;2023-06-22T05:48:33;9.60;;;6.22;;
17763;SDS011;22245;52.832;13.816;2023-06-22T05:51:55;11.18;;;6.78;;
17763;SDS011;22245;52.832;13.816;2023-06-22T05:55:17;8.63;;;6.65;;
17763;SDS011;22245;52.832;13.816;2023-06-22T05:58:39;7.38;;;6.57;;
17763;SDS011;22245;52.832;13.816;2023-06-22T06:02:03;9.65;;;6.57;;
17763;SDS011;22245;52.832;13.816;2023-06-22T06:05:25;10.32;;;6.85;;
17763;SDS011;22245;52.832;13.816;2023-06-22T06:08:47;11.48;;;5.50;;
17763;SDS011;22245;52.832;13.816;2023-06-22T06:12:09;7.70;;;5.82;;
17763;SDS011;22245;52.832;13.816;2023-06-22T06:15:32;8.40;;;5.85;;
17763;SDS011;22245;52.832;13.816;2023-06-22T06:18:57;8.93;;;4.97;;
17763;SDS011;22245;52.832;13.816;2023-06-22T06:22:18;9.55;;;5.20;;
17763;SDS011;22245;52.832;13.816;2023-06-22T06:25:41;7.72;;;6.05;;
17763;SDS011;22245;52.832;13.816;2023-06-22T06:29:02;7.18;;;4.50;;
17763;SDS011;22245;52.832;13.816;2023-06-22T06:32:24;7.18;;;4.93;;
17763;SDS011;22245;52.832;13.816;2023-06-22T06:35:47;6.80;;;4.65;;
17763;SDS011;22245;52.832;13.816;2023-06-22T06:39:08;4.68;;;3.88;;
17763;SDS011;22245;52.832;13.816;2023-06-22T06:42:30;7.28;;;4.75;;
17763;SDS011;22245;52.832;13.816;2023-06-22T06:45:52;7.30;;;4.60;;
17763;SDS011;22245;52.832;13.816;2023-06-22T06:49:14;7.07;;;4.15;;
17763;SDS011;22245;52.832;13.816;2023-06-22T06:52:37;6.38;;;3.83;;
17763;SDS011;22245;52.832;13.816;2023-06-22T06:55:59;6.25;;;4.28;;
17763;SDS011;22245;52.832;13.816;2023-06-22T06:59:21;5.70;;;4.00;;
17763;SDS011;22245;52.832;13.816;2023-06-22T07:02:43;4.75;;;3.85;;
17763;SDS011;22245;52.832;13.816;2023-06-22T07:06:08;5.22;;;3.70;;
17763;SDS011;22245;52.832;13.816;2023-06-22T07:09:32;9.57;;;4.32;;
17763;SDS011;22245;52.832;13.816;2023-06-22T07:12:54;4.13;;;3.50;;
17763;SDS011;22245;52.832;13.816;2023-06-22T07:16:18;5.68;;;4.43;;
17763;SDS011;22245;52.832;13.816;2023-06-22T07:19:40;5.38;;;3.50;;
17763;SDS011;22245;52.832;13.816;2023-06-22T07:23:02;5.57;;;3.38;;
17763;SDS011;22245;52.832;13.816;2023-06-22T07:26:26;5.80;;;3.67;;
17763;SDS011;22245;52.832;13.816;2023-06-22T07:29:48;6.95;;;3.67;;
17763;SDS011;22245;52.832;13.816;2023-06-22T07:33:10;9.35;;;3.20;;
17763;SDS011;22245;52.832;13.816;2023-06-22T07:36:32;5.25;;;3.47;;
17763;SDS011;22245;52.832;13.816;2023-06-22T07:39:55;5.65;;;3.28;;
17763;SDS011;22245;52.832;13.816;2023-06-22T07:43:19;6.97;;;2.80;;
17763;SDS011;22245;52.832;13.816;2023-06-22T07:46:43;5.88;;;2.50;;
17763;SDS011;22245;52.832;13.816;2023-06-22T07:50:05;6.15;;;2.70;;
17763;SDS011;22245;52.832;13.816;2023-06-22T07:53:27;6.65;;;2.50;;
17763;SDS011;22245;52.832;13.816;2023-06-22T07:56:49;4.63;;;2.28;;
17763;SDS011;22245;52.832;13.816;2023-06-22T08:00:13;6.57;;;3.05;;
17763;SDS011;22245;52.832;13.816;2023-06-22T08:03:36;5.72;;;2.65;;
17763;SDS011;22245;52.832;13.816;2023-06-22T08:06:57;6.55;;;2.60;;
17763;SDS011;22245;52.832;13.816;2023-06-22T08:10:19;2.88;;;2.17;;
17763;SDS011;22245;52.832;13.816;2023-06-22T08:13:42;4.63;;;2.67;;
17763;SDS011;22245;52.832;13.816;2023-06-22T08:17:05;7.07;;;2.75;;
17763;SDS011;22245;52.832;13.816;2023-06-22T08:20:27;6.63;;;2.95;;
17763;SDS011;22245;52.832;13.816;2023-06-22T08:23:49;4.63;;;2.85;;
17763;SDS011;22245;52.832;13.816;2023-06-22T08:27:11;3.88;;;3.22;;
17763;SDS011;22245;52.832;13.816;2023-06-22T08:30:33;4.72;;;3.17;;
17763;SDS011;22245;52.832;13.816;2023-06-22T08:33:56;4.32;;;3.10;;
17763;SDS011;22245;52.832;13.816;2023-06-22T08:37:18;3.78;;;2.83;;
17763;SDS011;22245;52.832;13.816;2023-06-22T08:40:39;3.95;;;2.83;;
17763;SDS011;22245;52.832;13.816;2023-06-22T08:44:01;5.88;;;3.30;;
17763;SDS011;22245;52.832;13.816;2023-06-22T08:47:24;4.22;;;3.22;;
17763;SDS011;22245;52.832;13.816;2023-06-22T08:50:47;7.60;;;3.72;;
17763;SDS011;22245;52.832;13.816;2023-06-22T08:54:09;5.75;;;3.35;;
17763;SDS011;22245;52.832;13.816;2023-06-22T08:57:30;5.20;;;3.20;;
17763;SDS011;22245;52.832;13.816;2023-06-22T09:00:52;4.97;;;3.20;;
17763;SDS011;22245;52.832;13.816;2023-06-22T09:04:14;6.57;;;4.00;;
17763;SDS011;22245;52.832;13.816;2023-06-22T09:07:38;6.53;;;3.20;;
17763;SDS011;22245;52.832;13.816;2023-06-22T09:11:00;4.20;;;3.30;;
17763;SDS011;22245;52.832;13.816;2023-06-22T09:14:21;8.55;;;3.53;;
17763;SDS011;22245;52.832;13.816;2023-06-22T09:17:43;9.77;;;5.80;;
17763;SDS011;22245;52.832;13.816;2023-06-22T09:21:07;4.10;;;3.60;;
17763;SDS011;22245;52.832;13.816;2023-06-22T09:24:30;6.25;;;3.33;;
17763;SDS011;22245;52.832;13.816;2023-06-22T09:27:52;13.82;;;4.68;;
17763;SDS011;22245;52.832;13.816;2023-06-22T09:31:14;5.95;;;3.63;;
17763;SDS011;22245;52.832;13.816;2023-06-22T09:34:36;3.85;;;3.45;;
17763;SDS011;22245;52.832;13.816;2023-06-22T09:37:58;7.18;;;3.67;;
17763;SDS011;22245;52.832;13.816;2023-06-22T09:41:22;4.50;;;3.40;;
17763;SDS011;22245;52.832;13.816;2023-06-22T09:44:44;5.45;;;3.38;;
17763;SDS011;22245;52.832;13.816;2023-06-22T09:48:07;4.57;;;3.58;;
17763;SDS011;22245;52.832;13.816;2023-06-22T09:51:30;5.03;;;3.30;;
17763;SDS011;22245;52.832;13.816;2023-06-22T09:54:52;7.72;;;3.70;;
17763;SDS011;22245;52.832;13.816;2023-06-22T09:58:15;8.85;;;3.60;;
17763;SDS011;22245;52.832;13.816;2023-06-22T10:01:36;4.80;;;3.78;;
17763;SDS011;22245;52.832;13.816;2023-06-22T10:04:58;7.53;;;3.67;;
17763;SDS011;22245;52.832;13.816;2023-06-22T10:08:21;6.82;;;3.85;;
17763;SDS011;22245;52.832;13.816;2023-06-22T10:11:42;5.90;;;3.78;;
17763;SDS011;22245;52.832;13.816;2023-06-22T10:15:06;7.60;;;3.70;;
17763;SDS011;22245;52.832;13.816;2023-06-22T10:18:29;5.88;;;3.60;;
17763;SDS011;22245;52.832;13.816;2023-06-22T10:21:51;6.57;;;4.00;;
17763;SDS011;22245;52.832;13.816;2023-06-22T10:25:13;6.93;;;3.85;;
17763;SDS011;22245;52.832;13.816;2023-06-22T10:28:35;6.35;;;4.18;;
17763;SDS011;22245;52.832;13.816;2023-06-22T10:31:58;4.95;;;4.18;;
17763;SDS011;22245;52.832;13.816;2023-06-22T10:35:20;6.65;;;4.03;;
17763;SDS011;22245;52.832;13.816;2023-06-22T10:38:42;4.70;;;3.90;;
17763;SDS011;22245;52.832;13.816;2023-06-22T10:42:04;7.93;;;3.97;;
17763;SDS011;22245;52.832;13.816;2023-06-22T10:45:26;5.95;;;3.80;;
17763;SDS011;22245;52.832;13.816;2023-06-22T10:48:50;13.98;;;4.72;;
17763;SDS011;22245;52.832;13.816;2023-06-22T10:52:14;6.88;;;4.50;;
17763;SDS011;22245;52.832;13.816;2023-06-22T10:55:36;5.45;;;4.88;;
17763;SDS011;22245;52.832;13.816;2023-06-22T10:59:16;6.88;;;4.40;;
17763;SDS011;22245;52.832;13.816;2023-06-22T11:02:38;10.13;;;4.57;;
17763;SDS011;22245;52.832;13.816;2023-06-22T11:06:01;8.23;;;5.07;;
17763;SDS011;22245;52.832;13.816;2023-06-22T11:09:23;7.40;;;5.00;;
17763;SDS011;22245;52.832;13.816;2023-06-22T11:12:49;7.30;;;5.15;;
17763;SDS011;22245;52.832;13.816;2023-06-22T11:16:11;6.05;;;4.32;;
17763;SDS011;22245;52.832;13.816;2023-06-22T11:19:33;5.80;;;4.47;;
17763;SDS011;22245;52.832;13.816;2023-06-22T11:22:56;5.70;;;5.03;;
17763;SDS011;22245;52.832;13.816;2023-06-22T11:26:20;12.25;;;5.30;;
17763;SDS011;22245;52.832;13.816;2023-06-22T11:29:42;6.40;;;4.68;;
17763;SDS011;22245;52.832;13.816;2023-06-22T11:33:04;19.30;;;5.70;;
17763;SDS011;22245;52.832;13.816;2023-06-22T11:36:26;8.65;;;4.90;;
17763;SDS011;22245;52.832;13.816;2023-06-22T11:39:50;6.13;;;4.93;;
17763;SDS011;22245;52.832;13.816;2023-06-22T11:43:26;7.40;;;4.88;;
17763;SDS011;22245;52.832;13.816;2023-06-22T11:46:49;5.68;;;4.72;;
17763;SDS011;22245;52.832;13.816;2023-06-22T11:50:11;5.53;;;4.88;;
17763;SDS011;22245;52.832;13.816;2023-06-22T11:53:33;11.35;;;5.03;;
17763;SDS011;22245;52.832;13.816;2023-06-22T11:56:57;9.07;;;4.60;;
17763;SDS011;22245;52.832;13.816;2023-06-22T12:00:19;13.90;;;4.50;;
17763;SDS011;22245;52.832;13.816;2023-06-22T12:03:44;8.98;;;5.28;;
17763;SDS011;22245;52.832;13.816;2023-06-22T12:07:06;5.50;;;4.47;;
17763;SDS011;22245;52.832;13.816;2023-06-22T12:10:27;9.95;;;5.00;;
17763;SDS011;22245;52.832;13.816;2023-06-22T12:13:51;8.63;;;4.85;;
17763;SDS011;22245;52.832;13.816;2023-06-22T12:17:13;13.95;;;5.03;;
17763;SDS011;22245;52.832;13.816;2023-06-22T12:20:35;4.75;;;4.00;;
17763;SDS011;22245;52.832;13.816;2023-06-22T12:23:56;8.00;;;4.28;;
17763;SDS011;22245;52.832;13.816;2023-06-22T12:27:19;6.82;;;4.60;;
17763;SDS011;22245;52.832;13.816;2023-06-22T12:30:41;10.40;;;5.00;;
17763;SDS011;22245;52.832;13.816;2023-06-22T12:34:03;4.75;;;4.25;;
17763;SDS011;22245;52.832;13.816;2023-06-22T12:37:24;6.57;;;4.57;;
17763;SDS011;22245;52.832;13.816;2023-06-22T12:40:47;5.05;;;4.55;;
17763;SDS011;22245;52.832;13.816;2023-06-22T12:44:09;6.47;;;4.68;;
17763;SDS011;22245;52.832;13.816;2023-06-22T12:47:33;6.28;;;4.40;;
17763;SDS011;22245;52.832;13.816;2023-06-22T12:50:55;5.95;;;4.13;;
17763;SDS011;22245;52.832;13.816;2023-06-22T12:54:16;5.65;;;4.70;;
17763;SDS011;22245;52.832;13.816;2023-06-22T12:57:40;4.70;;;4.30;;
17763;SDS011;22245;52.832;13.816;2023-06-22T13:01:02;5.65;;;4.30;;
17763;SDS011;22245;52.832;13.816;2023-06-22T13:04:26;4.57;;;4.18;;
17763;SDS011;22245;52.832;13.816;2023-06-22T13:07:48;6.25;;;4.32;;
17763;SDS011;22245;52.832;13.816;2023-06-22T13:11:10;7.15;;;5.03;;
17763;SDS011;22245;52.832;13.816;2023-06-22T13:14:31;7.07;;;4.78;;
17763;SDS011;22245;52.832;13.816;2023-06-22T13:17:53;6.28;;;4.88;;
17763;SDS011;22245;52.832;13.816;2023-06-22T13:21:16;5.53;;;4.70;;
17763;SDS011;22245;52.832;13.816;2023-06-22T13:24:37;6.45;;;4.43;;
17763;SDS011;22245;52.832;13.816;2023-06-22T13:27:59;5.47;;;4.78;;
17763;SDS011;22245;52.832;13.816;2023-06-22T13:31:24;5.10;;;4.57;;
17763;SDS011;22245;52.832;13.816;2023-06-22T13:34:46;6.45;;;4.70;;
17763;SDS011;22245;52.832;13.816;2023-06-22T13:38:09;7.72;;;5.03;;
17763;SDS011;22245;52.832;13.816;2023-06-22T13:41:31;7.28;;;4.80;;
17763;SDS011;22245;52.832;13.816;2023-06-22T13:44:53;5.03;;;4.53;;
17763;SDS011;22245;52.832;13.816;2023-06-22T13:48:15;8.10;;;4.45;;
17763;SDS011;22245;52.832;13.816;2023-06-22T13:51:36;6.22;;;4.70;;
17763;SDS011;22245;52.832;13.816;2023-06-22T13:55:00;5.57;;;5.07;;
17763;SDS011;22245;52.832;13.816;2023-06-22T13:58:21;5.75;;;4.57;;
17763;SDS011;22245;52.832;13.816;2023-06-22T14:01:43;5.22;;;4.72;;
17763;SDS011;22245;52.832;13.816;2023-06-22T14:05:05;6.20;;;5.05;;
17763;SDS011;22245;52.832;13.816;2023-06-22T14:08:27;6.72;;;5.20;;
17763;SDS011;22245;52.832;13.816;2023-06-22T14:12:04;5.53;;;5.03;;
17763;SDS011;22245;52.832;13.816;2023-06-22T14:15:27;6.25;;;5.07;;
17763;SDS011;22245;52.832;13.816;2023-06-22T14:18:48;6.05;;;4.80;;
17763;SDS011;22245;52.832;13.816;2023-06-22T14:22:11;5.05;;;4.55;;
17763;SDS011;22245;52.832;13.816;2023-06-22T14:25:33;5.10;;;4.60;;
17763;SDS011;22245;52.832;13.816;2023-06-22T14:28:56;6.28;;;5.50;;
17763;SDS011;22245;52.832;13.816;2023-06-22T14:32:18;5.30;;;4.80;;
17763;SDS011;22245;52.832;13.816;2023-06-22T14:35:40;5.65;;;5.15;;
17763;SDS011;22245;52.832;13.816;2023-06-22T14:39:02;7.20;;;5.00;;
17763;SDS011;22245;52.832;13.816;2023-06-22T14:42:24;5.63;;;5.00;;
17763;SDS011;22245;52.832;13.816;2023-06-22T14:45:49;5.30;;;4.80;;
17763;SDS011;22245;52.832;13.816;2023-06-22T14:49:13;10.20;;;4.75;;
17763;SDS011;22245;52.832;13.816;2023-06-22T14:52:34;5.95;;;5.00;;
17763;SDS011;22245;52.832;13.816;2023-06-22T14:55:56;8.15;;;5.60;;
17763;SDS011;22245;52.832;13.816;2023-06-22T14:59:20;7.05;;;5.55;;
17763;SDS011;22245;52.832;13.816;2023-06-22T15:02:43;5.90;;;5.30;;
17763;SDS011;22245;52.832;13.816;2023-06-22T15:06:05;5.75;;;5.07;;
17763;SDS011;22245;52.832;13.816;2023-06-22T15:09:27;8.90;;;5.60;;
17763;SDS011;22245;52.832;13.816;2023-06-22T15:12:49;6.18;;;5.43;;
17763;SDS011;22245;52.832;13.816;2023-06-22T15:16:11;6.60;;;5.75;;
17763;SDS011;22245;52.832;13.816;2023-06-22T15:19:34;6.07;;;5.47;;
17763;SDS011;22245;52.832;13.816;2023-06-22T15:22:57;6.63;;;5.28;;
17763;SDS011;22245;52.832;13.816;2023-06-22T15:26:19;6.78;;;6.07;;
17763;SDS011;22245;52.832;13.816;2023-06-22T15:29:41;6.90;;;6.20;;
17763;SDS011;22245;52.832;13.816;2023-06-22T15:33:03;6.28;;;5.68;;
17763;SDS011;22245;52.832;13.816;2023-06-22T15:36:26;7.50;;;6.80;;
17763;SDS011;22245;52.832;13.816;2023-06-22T15:39:48;8.68;;;6.30;;
17763;SDS011;22245;52.832;13.816;2023-06-22T15:43:10;7.60;;;6.07;;
17763;SDS011;22245;52.832;13.816;2023-06-22T15:46:33;6.97;;;6.28;;
17763;SDS011;22245;52.832;13.816;2023-06-22T15:49:54;6.35;;;5.75;;
17763;SDS011;22245;52.832;13.816;2023-06-22T15:53:17;6.97;;;6.38;;
17763;SDS011;22245;52.832;13.816;2023-06-22T15:56:39;6.65;;;6.05;;
17763;SDS011;22245;52.832;13.816;2023-06-22T16:00:01;8.35;;;6.10;;
17763;SDS011;22245;52.832;13.816;2023-06-22T16:03:26;7.30;;;6.70;;
17763;SDS011;22245;52.832;13.816;2023-06-22T16:06:48;7.82;;;5.85;;
17763;SDS011;22245;52.832;13.816;2023-06-22T16:10:13;9.27;;;6.25;;
17763;SDS011;22245;52.832;13.816;2023-06-22T16:13:36;7.65;;;6.95;;
17763;SDS011;22245;52.832;13.816;2023-06-22T16:16:59;9.73;;;6.95;;
17763;SDS011;22245;52.832;13.816;2023-06-22T16:20:23;8.35;;;6.93;;
17763;SDS011;22245;52.832;13.816;2023-06-22T16:23:45;7.85;;;7.00;;
17763;SDS011;22245;52.832;13.816;2023-06-22T16:27:08;7.57;;;6.85;;
17763;SDS011;22245;52.832;13.816;2023-06-22T16:30:29;7.45;;;6.32;;
17763;SDS011;22245;52.832;13.816;2023-06-22T16:33:52;10.15;;;7.45;;
17763;SDS011;22245;52.832;13.816;2023-06-22T16:37:14;7.88;;;6.60;;
17763;SDS011;22245;52.832;13.816;2023-06-22T16:40:36;7.45;;;6.72;;
17763;SDS011;22245;52.832;13.816;2023-06-22T16:43:59;8.95;;;6.72;;
17763;SDS011;22245;52.832;13.816;2023-06-22T16:47:24;7.43;;;6.70;;
17763;SDS011;22245;52.832;13.816;2023-06-22T16:50:47;6.95;;;6.32;;
17763;SDS011;22245;52.832;13.816;2023-06-22T16:54:09;11.15;;;6.53;;
17763;SDS011;22245;52.832;13.816;2023-06-22T16:57:32;7.13;;;6.32;;
17763;SDS011;22245;52.832;13.816;2023-06-22T17:00:55;9.25;;;6.57;;
17763;SDS011;22245;52.832;13.816;2023-06-22T17:04:20;7.00;;;6.28;;
17763;SDS011;22245;52.832;13.816;2023-06-22T17:07:45;8.43;;;6.97;;
17763;SDS011;22245;52.832;13.816;2023-06-22T17:11:08;9.73;;;6.35;;
17763;SDS011;22245;52.832;13.816;2023-06-22T17:14:31;6.78;;;6.10;;
17763;SDS011;22245;52.832;13.816;2023-06-22T17:17:54;7.75;;;6.50;;
17763;SDS011;22245;52.832;13.816;2023-06-22T17:21:20;6.05;;;5.45;;
17763;SDS011;22245;52.832;13.816;2023-06-22T17:24:42;7.18;;;6.35;;
17763;SDS011;22245;52.832;13.816;2023-06-22T17:28:05;7.68;;;6.20;;
17763;SDS011;22245;52.832;13.816;2023-06-22T17:31:31;12.48;;;6.40;;
17763;SDS011;22245;52.832;13.816;2023-06-22T17:34:59;7.75;;;6.55;;
17763;SDS011;22245;52.832;13.816;2023-06-22T17:38:21;6.70;;;5.50;;
17763;SDS011;22245;52.832;13.816;2023-06-22T17:41:43;6.72;;;5.68;;
17763;SDS011;22245;52.832;13.816;2023-06-22T17:45:09;7.57;;;6.38;;
17763;SDS011;22245;52.832;13.816;2023-06-22T17:48:36;7.85;;;6.18;;
17763;SDS011;22245;52.832;13.816;2023-06-22T17:52:00;6.88;;;6.20;;
17763;SDS011;22245;52.832;13.816;2023-06-22T17:55:22;9.40;;;6.35;;
17763;SDS011;22245;52.832;13.816;2023-06-22T17:58:52;8.50;;;6.80;;
17763;SDS011;22245;52.832;13.816;2023-06-22T18:02:14;6.60;;;6.00;;
17763;SDS011;22245;52.832;13.816;2023-06-22T18:05:44;7.25;;;5.93;;
17763;SDS011;22245;52.832;13.816;2023-06-22T18:09:08;7.68;;;5.97;;
17763;SDS011;22245;52.832;13.816;2023-06-22T18:12:31;8.05;;;6.53;;
17763;SDS011;22245;52.832;13.816;2023-06-22T18:15:54;6.90;;;6.20;;
17763;SDS011;22245;52.832;13.816;2023-06-22T18:19:17;7.57;;;6.00;;
17763;SDS011;22245;52.832;13.816;2023-06-22T18:22:39;9.07;;;6.20;;
17763;SDS011;22245;52.832;13.816;2023-06-22T18:26:04;8.10;;;5.90;;
17763;SDS011;22245;52.832;13.816;2023-06-22T18:29:27;7.40;;;5.85;;
17763;SDS011;22245;52.832;13.816;2023-06-22T18:32:50;6.80;;;5.78;;
17763;SDS011;22245;52.832;13.816;2023-06-22T18:36:12;6.68;;;5.82;;
17763;SDS011;22245;52.832;13.816;2023-06-22T18:39:36;6.95;;;6.25;;
17763;SDS011;22245;52.832;13.816;2023-06-22T18:43:01;6.95;;;6.25;;
17763;SDS011;22245;52.832;13.816;2023-06-22T18:46:32;7.47;;;6.15;;
17763;SDS011;22245;52.832;13.816;2023-06-22T18:50:03;6.53;;;5.88;;
17763;SDS011;22245;52.832;13.816;2023-06-22T18:53:26;7.60;;;6.80;;
17763;SDS011;22245;52.832;13.816;2023-06-22T18:56:55;9.77;;;6.20;;
17763;SDS011;22245;52.832;13.816;2023-06-22T19:00:19;6.82;;;5.82;;
17763;SDS011;22245;52.832;13.816;2023-06-22T19:03:55;6.47;;;5.82;;
17763;SDS011;22245;52.832;13.816;2023-06-22T19:07:18;6.90;;;6.20;;
17763;SDS011;22245;52.832;13.816;2023-06-22T19:10:53;8.90;;;6.50;;
17763;SDS011;22245;52.832;13.816;2023-06-22T19:14:32;7.25;;;6.35;;
17763;SDS011;22245;52.832;13.816;2023-06-22T19:17:56;8.77;;;6.40;;
17763;SDS011;22245;52.832;13.816;2023-06-22T19:21:21;8.05;;;7.25;;
17763;SDS011;22245;52.832;13.816;2023-06-22T19:24:47;9.95;;;7.50;;
17763;SDS011;22245;52.832;13.816;2023-06-22T19:28:10;8.45;;;6.68;;
17763;SDS011;22245;52.832;13.816;2023-06-22T19:31:33;8.73;;;6.55;;
17763;SDS011;22245;52.832;13.816;2023-06-22T19:34:57;7.10;;;6.40;;
17763;SDS011;22245;52.832;13.816;2023-06-22T19:38:19;9.35;;;6.03;;
17763;SDS011;22245;52.832;13.816;2023-06-22T19:41:41;7.18;;;6.47;;
17763;SDS011;22245;52.832;13.816;2023-06-22T19:45:03;8.82;;;6.80;;
17763;SDS011;22245;52.832;13.816;2023-06-22T19:48:26;11.32;;;6.25;;
17763;SDS011;22245;52.832;13.816;2023-06-22T19:51:50;8.88;;;5.90;;
17763;SDS011;22245;52.832;13.816;2023-06-22T19:55:12;7.05;;;6.30;;